createdAt,value
2022-09-28T00:01:50.749Z,99083.09
2022-09-28T00:04:20.420Z,99083.09
2022-09-28T00:06:48.853Z,99088.53
2022-09-28T00:09:17.033Z,99094.81
2022-09-28T00:11:46.046Z,99092.09
2022-09-28T00:14:15.579Z,99090.44
2022-09-28T00:16:44.565Z,99094.25
2022-09-28T00:19:12.555Z,99087.16
2022-09-28T00:21:41.515Z,99089.63
2022-09-28T00:24:19.546Z,99095.91
2022-09-28T00:26:50.396Z,99086.91
2022-09-28T00:29:21.788Z,99081.44
2022-09-28T00:31:50.368Z,99079.00
2022-09-28T00:34:18.738Z,99080.91
2022-09-28T00:36:47.066Z,99071.94
2022-09-28T00:39:15.540Z,99069.72
2022-09-28T00:41:43.389Z,99069.72
2022-09-28T00:44:38.160Z,99067.00
2022-09-28T00:47:16.938Z,99068.91
2022-09-28T00:49:46.428Z,99059.91
2022-09-28T00:52:14.855Z,99065.38
2022-09-28T00:54:43.099Z,99065.38
2022-09-28T00:57:10.990Z,99068.66
2022-09-28T00:59:40.205Z,99062.38
2022-09-28T01:02:10.338Z,99053.09
2022-09-28T01:04:38.803Z,99045.75
2022-09-28T01:07:07.199Z,99054.75
2022-09-28T01:09:35.019Z,99055.56
2022-09-28T01:12:03.544Z,99052.84
2022-09-28T01:14:31.655Z,99055.56
2022-09-28T01:17:07.568Z,99057.19
2022-09-28T01:19:45.707Z,99059.91
2022-09-28T01:22:22.158Z,99005.16
2022-09-28T01:24:50.093Z,99061.81
2022-09-28T01:27:20.550Z,99054.75
2022-09-28T01:29:52.242Z,99061.28
2022-09-28T01:32:26.874Z,99052.31
2022-09-28T01:34:57.671Z,99064.53
2022-09-28T01:37:28.294Z,99066.47
2022-09-28T01:39:56.138Z,99054.44
2022-09-28T01:42:27.786Z,99058.28
2022-09-28T01:44:56.699Z,99057.19
2022-09-28T01:47:24.868Z,99020.97
2022-09-28T01:49:54.711Z,99037.84
2022-09-28T01:52:24.350Z,99047.66
2022-09-28T01:54:54.648Z,99053.38
2022-09-28T01:57:23.999Z,99052.03
2022-09-28T01:59:54.817Z,99049.31
2022-09-28T02:02:25.178Z,99048.19
2022-09-28T02:04:55.166Z,99043.56
2022-09-28T02:07:24.742Z,99008.97
2022-09-28T02:09:56.059Z,99052.56
2022-09-28T02:12:25.995Z,99054.19
2022-09-28T02:14:56.141Z,99046.00
2022-09-28T02:17:23.989Z,99044.09
2022-09-28T02:19:51.806Z,99046.56
2022-09-28T02:22:23.516Z,99048.47
2022-09-28T02:24:54.906Z,99056.66
2022-09-28T02:27:26.602Z,99052.03
2022-09-28T02:29:55.822Z,99052.03
2022-09-28T02:32:23.650Z,99051.19
2022-09-28T02:34:51.922Z,99045.75
2022-09-28T02:37:19.771Z,99041.13
2022-09-28T02:39:47.647Z,99049.28
2022-09-28T02:42:18.335Z,99059.38
2022-09-28T02:45:05.294Z,99052.03
2022-09-28T02:47:40.740Z,99049.28
2022-09-28T02:50:13.089Z,99047.38
2022-09-28T02:52:53.720Z,99049.28
2022-09-28T02:55:25.904Z,99052.84
2022-09-28T02:58:04.997Z,99043.03
2022-09-28T03:00:35.177Z,99046.56
2022-09-28T03:03:07.627Z,99021.50
2022-09-28T03:05:39.897Z,99050.38
2022-09-28T03:08:08.763Z,99053.63
2022-09-28T03:10:38.427Z,99048.19
2022-09-28T03:13:06.774Z,99044.66
2022-09-28T03:15:36.780Z,99050.66
2022-09-28T03:18:04.919Z,99050.13
2022-09-28T03:20:33.495Z,99053.63
2022-09-28T03:25:49.771Z,99058.00
2022-09-28T03:28:17.657Z,99054.47
2022-09-28T03:30:46.909Z,99048.19
2022-09-28T03:33:15.052Z,99052.03
2022-09-28T03:35:42.937Z,99050.09
2022-09-28T03:38:10.868Z,99047.38
2022-09-28T03:40:38.778Z,99054.47
2022-09-28T03:43:07.281Z,99055.28
2022-09-28T03:45:35.215Z,99053.66
2022-09-28T03:48:04.622Z,99057.19
2022-09-28T03:50:32.500Z,99057.19
2022-09-28T03:53:04.234Z,99058.84
2022-09-28T03:55:32.148Z,99063.47
2022-09-28T03:58:00.030Z,99051.22
2022-09-28T04:00:27.878Z,99059.09
2022-09-28T04:02:55.994Z,99058.28
2022-09-28T04:05:25.319Z,99049.31
2022-09-28T04:07:53.870Z,99050.94
2022-09-28T04:10:22.095Z,99050.94
2022-09-28T04:12:50.943Z,99052.84
2022-09-28T04:15:18.762Z,99053.66
2022-09-28T04:17:46.627Z,99048.19
2022-09-28T04:20:14.674Z,99045.22
2022-09-28T04:22:44.343Z,99056.38
2022-09-28T04:25:12.531Z,99061.84
2022-09-28T04:27:57.743Z,99063.75
2022-09-28T04:30:25.814Z,99059.09
2022-09-28T04:32:53.997Z,99059.09
2022-09-28T04:35:21.857Z,99054.47
2022-09-28T04:37:51.145Z,99059.91
2022-09-28T04:40:19.065Z,99059.09
2022-09-28T04:42:53.869Z,99061.56
2022-09-28T04:45:21.769Z,99061.28
2022-09-28T04:47:49.618Z,99052.31
2022-09-28T04:50:17.702Z,99055.84
2022-09-28T04:52:45.632Z,99055.28
2022-09-28T04:55:15.333Z,99060.75
2022-09-28T04:57:43.283Z,99054.22
2022-09-28T05:00:12.728Z,99065.94
2022-09-28T05:02:40.635Z,99064.28
2022-09-28T05:05:09.820Z,99065.13
2022-09-28T05:07:37.732Z,99059.66
2022-09-28T05:10:06.271Z,99057.19
2022-09-28T05:12:35.579Z,99060.22
2022-09-28T05:15:03.905Z,99068.09
2022-09-28T05:17:31.991Z,99061.84
2022-09-28T05:20:00.684Z,99066.19
2022-09-28T05:22:28.612Z,99060.75
2022-09-28T05:24:58.234Z,99059.09
2022-09-28T05:27:26.145Z,99061.84
2022-09-28T05:29:55.504Z,99068.09
2022-09-28T05:32:23.349Z,99059.91
2022-09-28T05:34:51.557Z,99070.81
2022-09-28T05:37:19.433Z,99056.13
2022-09-28T05:39:47.253Z,99067.00
2022-09-28T05:45:58.011Z,99073.56
2022-09-28T05:48:25.979Z,99073.56
2022-09-28T05:50:54.038Z,99068.41
2022-09-28T05:53:21.980Z,99080.66
2022-09-28T05:55:49.868Z,99073.56
2022-09-28T05:58:18.085Z,99077.09
2022-09-28T06:00:45.980Z,99079.00
2022-09-28T06:03:15.493Z,99085.28
2022-09-28T06:05:43.370Z,99095.09
2022-09-28T06:08:11.644Z,99088.00
2022-09-28T06:10:39.563Z,99093.47
2022-09-28T06:13:07.883Z,99086.09
2022-09-28T06:15:36.355Z,99080.91
2022-09-28T06:18:05.382Z,99084.19
2022-09-28T06:20:36.795Z,99101.38
2022-09-28T06:23:05.029Z,99091.28
2022-09-28T06:25:33.203Z,99096.75
2022-09-28T06:28:02.552Z,99099.19
2022-09-28T06:30:31.422Z,99100.28
2022-09-28T06:33:00.457Z,99097.56
2022-09-28T06:35:29.641Z,99097.56
2022-09-28T06:37:59.061Z,99106.56
2022-09-28T06:40:27.065Z,99112.00
2022-09-28T06:42:58.305Z,99120.19
2022-09-28T06:45:26.604Z,99116.66
2022-09-28T06:47:56.597Z,99124.53
2022-09-28T06:50:24.597Z,99118.56
2022-09-28T06:52:53.716Z,99131.91
2022-09-28T06:55:22.986Z,99127.56
2022-09-28T06:57:58.738Z,99133.81
2022-09-28T07:00:26.901Z,99122.09
2022-09-28T07:02:55.050Z,99132.72
2022-09-28T07:05:27.011Z,99137.38
2022-09-28T07:07:56.303Z,99140.09
2022-09-28T07:10:26.103Z,99143.63
2022-09-28T07:12:54.304Z,99150.72
2022-09-28T07:15:22.179Z,99151.78
2022-09-28T07:18:00.687Z,99153.72
2022-09-28T07:20:30.743Z,99150.19
2022-09-28T07:23:13.451Z,99155.63
2022-09-28T07:25:47.940Z,99152.91
2022-09-28T07:28:16.353Z,99151.00
2022-09-28T07:30:44.475Z,99150.19
2022-09-28T07:33:14.555Z,99158.38
2022-09-28T07:35:43.041Z,99159.44
2022-09-28T07:38:11.393Z,99158.63
2022-09-28T07:40:57.105Z,99159.44
2022-09-28T07:43:26.461Z,99153.69
2022-09-28T07:45:55.645Z,99173.06
2022-09-28T07:48:23.670Z,99182.09
2022-09-28T07:50:52.246Z,99173.91
2022-09-28T07:53:20.211Z,99183.97
2022-09-28T07:55:52.200Z,99185.88
2022-09-28T07:58:20.651Z,99183.97
2022-09-28T08:00:50.073Z,99186.72
2022-09-28T08:03:18.930Z,99192.16
2022-09-28T08:05:46.956Z,99185.06
2022-09-28T08:08:14.901Z,99183.97
2022-09-28T08:10:46.842Z,99186.72
2022-09-28T08:13:16.360Z,99193.81
2022-09-28T08:15:44.396Z,99195.72
2022-09-28T08:18:13.625Z,99189.16
2022-09-28T08:20:59.361Z,99197.34
2022-09-28T08:23:27.254Z,99201.97
2022-09-28T08:25:55.265Z,99202.81
2022-09-28T08:28:23.827Z,99200.09
2022-09-28T08:30:52.158Z,99205.53
2022-09-28T08:33:22.550Z,99208.25
2022-09-28T08:35:57.485Z,99219.97
2022-09-28T08:38:25.568Z,99213.97
2022-09-28T08:41:00.943Z,99215.63
2022-09-28T08:43:41.901Z,99226.22
2022-09-28T08:46:09.869Z,99225.69
2022-09-28T08:49:01.158Z,99227.34
2022-09-28T08:51:29.953Z,99225.69
2022-09-28T08:53:59.734Z,99225.69
2022-09-28T08:56:32.987Z,99229.25
2022-09-28T08:59:02.735Z,99226.53
2022-09-28T09:01:35.058Z,99230.06
2022-09-28T09:04:06.577Z,99231.16
2022-09-28T09:06:40.917Z,99233.88
2022-09-28T09:09:11.385Z,99238.50
2022-09-28T09:11:50.775Z,99234.97
2022-09-28T09:14:40.068Z,99235.78
2022-09-28T09:17:14.549Z,99245.59
2022-09-28T09:19:48.233Z,99242.88
2022-09-28T09:22:17.578Z,99246.44
2022-09-28T09:24:50.903Z,99251.06
2022-09-28T09:27:33.655Z,99240.41
2022-09-28T09:30:07.746Z,99252.69
2022-09-28T09:32:43.031Z,99233.56
2022-09-28T09:35:30.628Z,99256.22
2022-09-28T09:38:09.367Z,99257.88
2022-09-28T09:40:46.997Z,99261.41
2022-09-28T09:43:34.801Z,99266.59
2022-09-28T09:46:08.313Z,99264.41
2022-09-28T09:48:37.936Z,99255.41
2022-09-28T09:51:11.444Z,99267.13
2022-09-28T09:53:41.757Z,99266.31
2022-09-28T09:56:13.043Z,99269.03
2022-09-28T09:58:44.682Z,99269.03
2022-09-28T10:01:13.746Z,99266.31
2022-09-28T10:03:43.965Z,99266.88
2022-09-28T10:06:15.446Z,99203.00
2022-09-28T10:08:45.398Z,99258.13
2022-09-28T10:11:15.075Z,99258.69
2022-09-28T10:13:43.004Z,99259.50
2022-09-28T10:16:10.881Z,99264.13
2022-09-28T10:18:38.938Z,99155.25
2022-09-28T10:21:07.179Z,99263.06
2022-09-28T10:23:37.717Z,99248.34
2022-09-28T10:26:07.122Z,99255.69
2022-09-28T10:28:36.985Z,99260.34
2022-09-28T10:31:38.264Z,99263.06
2022-09-28T10:34:06.880Z,99263.88
2022-09-28T10:36:38.637Z,99264.97
2022-09-28T10:39:07.911Z,99265.78
2022-09-28T10:41:35.782Z,99270.97
2022-09-28T10:44:11.112Z,99266.59
2022-09-28T10:46:39.682Z,99269.03
2022-09-28T10:49:09.532Z,99269.03
2022-09-28T10:51:43.801Z,99273.41
2022-09-28T10:54:17.202Z,99283.22
2022-09-28T10:56:45.155Z,99279.94
2022-09-28T10:59:40.718Z,99275.06
2022-09-28T11:02:20.496Z,99278.34
2022-09-28T11:04:52.235Z,99254.88
2022-09-28T11:07:20.846Z,99275.88
2022-09-28T11:09:50.200Z,99269.09
2022-09-28T11:12:19.804Z,99252.41
2022-09-28T11:14:52.639Z,99225.16
2022-09-28T11:17:27.262Z,99267.97
2022-09-28T11:19:55.387Z,99273.41
2022-09-28T11:22:25.059Z,99271.25
2022-09-28T11:24:54.649Z,99273.72
2022-09-28T11:27:23.550Z,99250.50
2022-09-28T11:29:56.813Z,99274.25
2022-09-28T11:32:25.007Z,99274.25
2022-09-28T11:34:59.434Z,99266.34
2022-09-28T11:37:37.717Z,99269.91
2022-09-28T11:40:15.420Z,99268.78
2022-09-28T11:42:46.463Z,99279.69
2022-09-28T11:45:24.372Z,99270.69
2022-09-28T11:47:54.116Z,99273.16
2022-09-28T11:50:25.482Z,99271.00
2022-09-28T11:52:58.635Z,99267.44
2022-09-28T11:55:30.213Z,99228.97
2022-09-28T11:58:01.485Z,99258.97
2022-09-28T12:00:29.567Z,99267.97
2022-09-28T12:03:00.556Z,99246.41
2022-09-28T12:05:29.463Z,99263.88
2022-09-28T12:07:58.179Z,99270.16
2022-09-28T12:10:34.375Z,99266.06
2022-09-28T12:13:02.793Z,99276.44
2022-09-28T12:16:11.573Z,99279.69
2022-09-28T12:18:33.961Z,99278.88
2022-09-28T12:21:09.784Z,99266.59
2022-09-28T12:23:38.438Z,99113.50
2022-09-28T12:26:16.731Z,99275.63
2022-09-28T12:28:46.491Z,99279.16
2022-09-28T12:31:17.148Z,99258.44
2022-09-28T12:33:47.273Z,99268.50
2022-09-28T12:36:21.308Z,99271.25
2022-09-28T12:39:17.548Z,99273.41
2022-09-28T12:41:54.540Z,99269.88
2022-09-28T12:44:48.207Z,99258.94
2022-09-28T12:47:33.811Z,99261.41
2022-09-28T12:53:04.869Z,99259.78
2022-09-28T12:55:43.141Z,99269.03
2022-09-28T12:58:23.822Z,99262.78
2022-09-28T13:00:56.626Z,99258.13
2022-09-28T13:03:48.754Z,99266.31
2022-09-28T13:06:31.019Z,99269.03
2022-09-28T13:09:06.073Z,99198.09
2022-09-28T13:11:34.738Z,99263.31
2022-09-28T13:14:19.965Z,99126.09
2022-09-28T13:16:49.560Z,99258.69
2022-09-28T13:19:21.044Z,99228.13
2022-09-28T13:21:50.739Z,99259.25
2022-09-28T13:24:33.553Z,99271.50
2022-09-28T13:27:05.507Z,99271.25
2022-09-28T13:29:34.985Z,99271.25
2022-09-28T13:32:03.437Z,99261.41
2022-09-28T13:34:33.583Z,99249.44
2022-09-28T13:37:21.636Z,99251.34
2022-09-28T13:39:52.221Z,99268.50
2022-09-28T13:42:30.773Z,99255.97
2022-09-28T13:45:29.340Z,99257.88
2022-09-28T13:48:02.745Z,99256.78
2022-09-28T13:50:37.102Z,99255.16
2022-09-28T13:53:09.175Z,99248.88
2022-09-28T13:55:39.181Z,99253.25
2022-09-28T13:58:07.746Z,99261.41
2022-09-28T14:00:39.847Z,99261.41
2022-09-28T14:03:14.895Z,99266.88
2022-09-28T14:05:47.645Z,99254.06
2022-09-28T14:08:30.061Z,99259.50
2022-09-28T14:10:58.253Z,99249.44
2022-09-28T14:13:58.924Z,99253.25
2022-09-28T14:16:31.076Z,99198.41
2022-09-28T14:19:01.024Z,99202.47
2022-09-28T14:22:07.443Z,99252.41
2022-09-28T14:24:45.054Z,99252.97
2022-09-28T14:27:35.220Z,99245.88
2022-09-28T14:30:20.866Z,99268.78
2022-09-28T14:32:54.074Z,99265.78
2022-09-28T14:35:27.256Z,99266.06
2022-09-28T14:38:13.961Z,99276.44
2022-09-28T14:41:10.952Z,99278.34
2022-09-28T14:43:58.429Z,99276.69
2022-09-28T14:46:40.510Z,99281.88
2022-09-28T14:49:42.834Z,99288.44
2022-09-28T14:52:12.538Z,99230.28
2022-09-28T14:54:54.232Z,99275.88
2022-09-28T14:57:26.511Z,99293.06
2022-09-28T14:59:54.389Z,99293.31
2022-09-28T15:02:25.021Z,99292.25
2022-09-28T15:04:59.936Z,99296.59
2022-09-28T15:07:32.787Z,99296.59
2022-09-28T15:10:00.921Z,99299.34
2022-09-28T15:12:29.392Z,99298.25
2022-09-28T15:14:58.816Z,99300.97
2022-09-28T15:17:28.470Z,99303.69
2022-09-28T15:20:21.838Z,99293.06
2022-09-28T15:22:51.755Z,99299.34
2022-09-28T15:25:21.184Z,99298.50
2022-09-28T15:27:52.568Z,99298.50
2022-09-28T15:30:24.176Z,99297.69
2022-09-28T15:32:54.627Z,99297.69
2022-09-28T15:35:22.779Z,99296.88
2022-09-28T15:37:52.455Z,99303.16
2022-09-28T15:40:22.527Z,99300.69
2022-09-28T15:42:50.707Z,99293.31
2022-09-28T15:45:26.823Z,99300.41
2022-09-28T15:48:17.053Z,99299.59
2022-09-28T15:50:58.108Z,99302.06
2022-09-28T15:53:27.348Z,99307.50
2022-09-28T15:55:56.768Z,99309.94
2022-09-28T15:58:24.803Z,99322.22
2022-09-28T16:01:13.607Z,99332.06
2022-09-28T16:03:41.553Z,99341.88
2022-09-28T16:06:09.906Z,99345.69
2022-09-28T16:08:43.199Z,99351.16
2022-09-28T16:11:14.781Z,99354.69
2022-09-28T16:13:54.391Z,99362.56
2022-09-28T16:16:24.929Z,99372.97
2022-09-28T16:18:52.930Z,99364.78
2022-09-28T16:21:40.505Z,99356.59
2022-09-28T16:24:20.003Z,99362.06
2022-09-28T16:26:49.220Z,99374.03
2022-09-28T16:29:26.095Z,99368.59
2022-09-28T16:31:54.078Z,99365.03
2022-09-28T16:34:25.472Z,99377.84
2022-09-28T16:36:55.666Z,99377.59
2022-09-28T16:39:25.465Z,99381.97
2022-09-28T16:41:56.055Z,99384.69
2022-09-28T16:44:25.875Z,99319.66
2022-09-28T16:46:56.916Z,99383.88
2022-09-28T16:49:25.565Z,99368.03
2022-09-28T16:51:55.200Z,99382.50
2022-09-28T16:54:42.600Z,99400.25
2022-09-28T16:57:11.803Z,99386.59
2022-09-28T16:59:39.649Z,99397.28
2022-09-28T17:02:35.309Z,99378.41
2022-09-28T17:05:06.865Z,99393.72
2022-09-28T17:07:34.775Z,99406.00
2022-09-28T17:10:04.575Z,99411.44
2022-09-28T17:12:32.420Z,99403.53
2022-09-28T17:15:01.018Z,99406.25
2022-09-28T17:17:31.462Z,99404.63
2022-09-28T17:19:59.396Z,99403.00
2022-09-28T17:22:27.358Z,99405.97
2022-09-28T17:24:55.608Z,99408.16
2022-09-28T17:27:24.883Z,99399.16
2022-09-28T17:29:52.875Z,99396.69
2022-09-28T17:32:20.780Z,99397.53
2022-09-28T17:35:00.879Z,99396.69
2022-09-28T17:37:37.567Z,99402.97
2022-09-28T17:40:08.780Z,99396.69
2022-09-28T17:42:38.068Z,99398.59
2022-09-28T17:45:08.598Z,99405.13
2022-09-28T17:47:36.529Z,99407.03
2022-09-28T17:50:06.995Z,99397.22
2022-09-28T17:52:34.846Z,99408.13
2022-09-28T17:55:04.235Z,99417.94
2022-09-28T17:57:32.258Z,99409.78
2022-09-28T18:00:01.823Z,99416.03
2022-09-28T18:02:29.795Z,99414.97
2022-09-28T18:04:58.823Z,99409.47
2022-09-28T18:07:28.530Z,99423.16
2022-09-28T18:09:56.855Z,99423.16
2022-09-28T18:12:25.115Z,99424.22
2022-09-28T18:14:53.969Z,99423.16
2022-09-28T18:17:23.227Z,99424.47
2022-09-28T18:19:51.148Z,99426.13
2022-09-28T18:22:19.040Z,99432.66
2022-09-28T18:24:47.289Z,99429.69
2022-09-28T18:27:15.361Z,99405.09
2022-09-28T18:29:43.194Z,99424.81
2022-09-28T18:32:11.151Z,99417.47
2022-09-28T18:34:40.545Z,99398.34
2022-09-28T18:37:08.651Z,99428.66
2022-09-28T18:39:36.882Z,99423.47
2022-09-28T18:42:05.102Z,99433.88
2022-09-28T18:44:33.890Z,99438.78
2022-09-28T18:47:02.495Z,99442.88
2022-09-28T18:49:31.420Z,99431.72
2022-09-28T18:52:01.284Z,99427.59
2022-09-28T18:54:29.480Z,99435.56
2022-09-28T18:56:57.428Z,99445.41
2022-09-28T18:59:25.449Z,99430.06
2022-09-28T19:01:53.871Z,99434.97
2022-09-28T19:04:22.355Z,99453.03
2022-09-28T19:06:52.357Z,99451.13
2022-09-28T19:09:22.557Z,99460.97
2022-09-28T19:11:50.487Z,99459.06
2022-09-28T19:14:18.844Z,99455.75
2022-09-28T19:16:46.784Z,99454.38
2022-09-28T19:19:16.013Z,99450.84
2022-09-28T19:21:44.335Z,99461.78
2022-09-28T19:24:19.605Z,99454.94
2022-09-28T19:26:50.747Z,99430.31
2022-09-28T19:29:18.901Z,99456.00
2022-09-28T19:31:49.102Z,99445.06
2022-09-28T19:34:19.962Z,99465.28
2022-09-28T19:36:50.653Z,99461.50
2022-09-28T19:39:18.560Z,99448.66
2022-09-28T19:41:51.335Z,99446.44
2022-09-28T19:44:25.730Z,99465.03
2022-09-28T19:46:58.666Z,99467.50
2022-09-28T19:49:33.611Z,99464.50
2022-09-28T19:52:12.597Z,99467.25
2022-09-28T19:54:43.808Z,99451.94
2022-09-28T19:57:14.588Z,99478.44
2022-09-28T19:59:44.370Z,99478.44
2022-09-28T20:02:13.290Z,99485.53
2022-09-28T20:04:41.214Z,99487.97
2022-09-28T20:07:09.084Z,99484.72
2022-09-28T20:09:36.967Z,99486.34
2022-09-28T20:12:04.967Z,99483.31
2022-09-28T20:14:38.239Z,99493.13
2022-09-28T20:17:11.215Z,99485.75
2022-09-28T20:19:39.157Z,99490.91
2022-09-28T20:22:07.617Z,99489.78
2022-09-28T20:24:35.581Z,99494.97
2022-09-28T20:27:03.787Z,99491.69
2022-09-28T20:29:33.356Z,99490.31
2022-09-28T20:32:04.081Z,99484.59
2022-09-28T20:34:33.449Z,99493.84
2022-09-28T20:37:01.376Z,99493.56
2022-09-28T20:39:29.418Z,99497.91
2022-09-28T20:41:57.652Z,99501.72
2022-09-28T20:44:25.593Z,99491.66
2022-09-28T20:46:53.516Z,99489.22
2022-09-28T20:49:22.778Z,99485.66
2022-09-28T20:51:51.003Z,99491.09
2022-09-28T20:54:19.031Z,99491.38
2022-09-28T20:56:48.214Z,99482.63
2022-09-28T20:59:16.179Z,99490.00
2022-09-28T21:01:44.410Z,99493.53
2022-09-28T21:04:12.357Z,99489.19
2022-09-28T21:06:42.222Z,99483.72
2022-09-28T21:09:10.733Z,99497.38
2022-09-28T21:11:40.230Z,99488.38
2022-09-28T21:14:10.377Z,99488.38
2022-09-28T21:16:38.413Z,99491.91
2022-09-28T21:19:06.301Z,99491.09
2022-09-28T21:21:34.508Z,99486.47
2022-09-28T21:24:03.959Z,99490.00
2022-09-28T21:26:31.864Z,99491.09
2022-09-28T21:29:00.523Z,99492.19
2022-09-28T21:31:31.347Z,99494.06
2022-09-28T21:33:59.410Z,99498.44
2022-09-28T21:36:27.302Z,99498.72
2022-09-28T21:38:56.048Z,99496.25
2022-09-28T21:41:25.759Z,99496.81
2022-09-28T21:43:53.673Z,99500.34
2022-09-28T21:46:21.553Z,99503.09
2022-09-28T21:48:52.437Z,99507.72
2022-09-28T21:51:20.767Z,99504.16
2022-09-28T21:53:49.643Z,99497.88
2022-09-28T21:56:17.568Z,99497.63
2022-09-28T21:58:46.959Z,99495.97
2022-09-28T22:01:16.750Z,99498.72
2022-09-28T22:03:45.278Z,99500.63
2022-09-28T22:06:13.216Z,99505.00
2022-09-28T22:08:41.160Z,99506.63
2022-09-28T22:11:10.341Z,99498.44
2022-09-28T22:13:40.836Z,99501.19
2022-09-28T22:16:10.261Z,99498.44
2022-09-28T22:18:38.172Z,99501.19
2022-09-28T22:21:07.602Z,99495.97
2022-09-28T22:23:35.630Z,99499.53
2022-09-28T22:26:04.854Z,99499.78
2022-09-28T22:28:32.750Z,99499.53
2022-09-28T22:31:00.970Z,99504.16
2022-09-28T22:33:30.245Z,99504.41
2022-09-28T22:35:58.257Z,99501.97
2022-09-28T22:38:26.123Z,99507.69
2022-09-28T22:40:55.565Z,99495.97
2022-09-28T22:43:23.736Z,99503.88
2022-09-28T22:45:51.840Z,99496.53
2022-09-28T22:48:19.785Z,99502.25
2022-09-28T22:50:52.470Z,99504.41
2022-09-28T22:53:20.387Z,99509.59
2022-09-28T22:55:48.210Z,99502.50
2022-09-28T22:58:16.112Z,99514.22
2022-09-28T23:00:44.490Z,99515.31
2022-09-28T23:03:12.459Z,99510.41
2022-09-28T23:05:40.441Z,99512.31
2022-09-28T23:08:10.537Z,99511.47
2022-09-28T23:10:38.667Z,99504.38
2022-09-28T23:13:06.535Z,99503.28
2022-09-28T23:15:34.409Z,99501.66
2022-09-28T23:18:02.270Z,99502.47
2022-09-28T23:20:30.444Z,99507.09
2022-09-28T23:22:58.335Z,99504.38
2022-09-28T23:25:29.208Z,99507.94
2022-09-28T23:27:57.132Z,99512.56
2022-09-28T23:30:25.467Z,99510.66
2022-09-28T23:32:54.227Z,99506.28
2022-09-28T23:35:22.158Z,99500.81
2022-09-28T23:37:52.956Z,99506.84
2022-09-28T23:40:21.155Z,99500.81
2022-09-28T23:42:50.494Z,99505.19
2022-09-28T23:45:18.385Z,99506.28
2022-09-28T23:47:46.214Z,99508.22
2022-09-28T23:50:14.376Z,99502.75
2022-09-28T23:52:42.201Z,99503.56
2022-09-28T23:55:10.398Z,99502.75
2022-09-28T23:57:40.078Z,99506.56
